createdAt,value
2018-12-11T00:00:13.637Z,10.25
2018-12-11T00:00:48.664Z,9.45
2018-12-11T00:01:23.597Z,10.00
2018-12-11T00:01:58.355Z,11.83
2018-12-11T00:02:33.418Z,11.55
2018-12-11T00:03:08.334Z,10.32
2018-12-11T00:03:43.274Z,10.35
2018-12-11T00:04:17.994Z,9.53
2018-12-11T00:04:52.957Z,11.25
2018-12-11T00:05:27.997Z,10.60
2018-12-11T00:06:02.854Z,12.78
2018-12-11T00:06:37.744Z,11.65
2018-12-11T00:07:12.534Z,13.18
2018-12-11T00:07:47.414Z,13.55
2018-12-11T00:08:22.397Z,14.55
2018-12-11T00:08:57.314Z,14.60
2018-12-11T00:09:32.171Z,13.48
2018-12-11T00:10:07.371Z,14.13
2018-12-11T00:10:42.372Z,14.87
2018-12-11T00:11:17.631Z,13.10
2018-12-11T00:11:53.071Z,14.87
2018-12-11T00:12:27.971Z,14.87
2018-12-11T00:13:03.372Z,13.83
2018-12-11T00:13:38.551Z,14.53
2018-12-11T00:14:13.971Z,14.15
2018-12-11T00:14:49.251Z,14.87
2018-12-11T00:15:24.214Z,15.68
2018-12-11T00:15:59.339Z,16.05
2018-12-11T00:16:34.232Z,16.60
2018-12-11T00:17:09.252Z,15.95
2018-12-11T00:17:44.531Z,17.48
2018-12-11T00:18:19.311Z,15.23
2018-12-11T00:18:54.231Z,16.90
2018-12-11T00:19:29.093Z,16.82
2018-12-11T00:20:04.394Z,13.78
2018-12-11T00:20:39.471Z,13.58
2018-12-11T00:21:14.351Z,16.00
2018-12-11T00:21:49.231Z,17.40
2018-12-11T00:22:24.171Z,15.60
2018-12-11T00:22:59.111Z,15.60
2018-12-11T00:23:34.071Z,16.30
2018-12-11T00:24:09.391Z,16.37
2018-12-11T00:24:44.451Z,16.25
2018-12-11T00:25:19.331Z,16.65
2018-12-11T00:25:54.891Z,16.45
2018-12-11T00:26:30.031Z,16.80
2018-12-11T00:27:05.031Z,17.90
2018-12-11T00:27:39.891Z,18.10
2018-12-11T00:28:14.751Z,15.23
2018-12-11T00:28:49.691Z,14.90
2018-12-11T00:29:24.711Z,17.07
2018-12-11T00:29:59.671Z,18.37
2018-12-11T00:30:34.771Z,16.82
2018-12-11T00:31:09.712Z,17.95
2018-12-11T00:31:44.911Z,15.78
2018-12-11T00:32:19.961Z,16.67
2018-12-11T00:32:54.911Z,17.27
2018-12-11T00:33:29.814Z,16.80
2018-12-11T00:34:04.991Z,17.92
2018-12-11T00:34:40.051Z,17.27
2018-12-11T00:35:15.211Z,17.55
2018-12-11T00:35:50.191Z,18.35
2018-12-11T00:36:25.051Z,17.80
2018-12-11T00:37:00.072Z,17.25
2018-12-11T00:37:35.131Z,18.23
2018-12-11T00:38:10.111Z,9.05
2018-12-11T00:38:45.111Z,18.00
2018-12-11T00:39:20.111Z,17.77
2018-12-11T00:39:55.191Z,19.07
2018-12-11T00:40:30.111Z,18.60
2018-12-11T00:41:05.151Z,18.42
2018-12-11T00:41:40.151Z,17.95
2018-12-11T00:42:15.271Z,14.78
2018-12-11T00:42:50.192Z,18.17
2018-12-11T00:43:25.375Z,17.27
2018-12-11T00:44:00.271Z,19.20
2018-12-11T00:44:35.399Z,13.32
2018-12-11T00:45:10.570Z,18.23
2018-12-11T00:45:45.571Z,18.55
2018-12-11T00:46:20.472Z,17.27
2018-12-11T00:46:55.457Z,19.20
2018-12-11T00:47:30.613Z,17.23
2018-12-11T00:48:05.671Z,21.35
2018-12-11T00:48:40.571Z,20.45
2018-12-11T00:49:15.511Z,15.35
2018-12-11T00:49:50.491Z,15.70
2018-12-11T00:50:25.691Z,18.85
2018-12-11T00:51:00.632Z,18.80
2018-12-11T00:51:35.594Z,18.05
2018-12-11T00:52:10.431Z,19.75
2018-12-11T00:52:45.431Z,19.42
2018-12-11T00:53:20.411Z,18.65
2018-12-11T00:53:55.371Z,20.25
2018-12-11T00:54:30.291Z,20.80
2018-12-11T00:55:05.511Z,17.10
2018-12-11T00:55:40.492Z,18.20
2018-12-11T00:56:15.562Z,17.95
2018-12-11T00:56:50.571Z,17.57
2018-12-11T00:57:25.631Z,20.25
2018-12-11T00:58:00.571Z,21.70
2018-12-11T00:58:35.811Z,18.98
2018-12-11T00:59:10.751Z,21.82
2018-12-11T00:59:45.719Z,19.12
2018-12-11T01:00:20.771Z,21.20
2018-12-11T01:00:55.713Z,18.85
2018-12-11T01:01:30.833Z,19.73
2018-12-11T01:02:05.851Z,19.67
2018-12-11T01:02:40.851Z,20.97
2018-12-11T01:03:15.695Z,21.80
2018-12-11T01:03:50.652Z,22.42
2018-12-11T01:04:25.651Z,20.25
2018-12-11T01:05:00.671Z,19.35
2018-12-11T01:05:35.791Z,20.37
2018-12-11T01:06:10.792Z,22.50
2018-12-11T01:06:45.751Z,21.00
2018-12-11T01:07:20.851Z,21.17
2018-12-11T01:07:55.891Z,20.15
2018-12-11T01:08:31.181Z,21.15
2018-12-11T01:09:07.519Z,19.82
2018-12-11T01:09:42.531Z,19.92
2018-12-11T01:10:17.493Z,20.68
2018-12-11T01:10:52.492Z,20.75
2018-12-11T01:11:27.674Z,20.12
2018-12-11T01:12:02.621Z,21.80
2018-12-11T01:12:37.671Z,24.30
2018-12-11T01:13:12.611Z,18.25
2018-12-11T01:13:47.611Z,22.40
2018-12-11T01:14:22.531Z,23.67
2018-12-11T01:14:57.671Z,24.00
2018-12-11T01:15:32.588Z,20.62
2018-12-11T01:16:07.572Z,23.27
2018-12-11T01:16:42.647Z,21.90
2018-12-11T01:17:17.571Z,22.40
2018-12-11T01:17:52.553Z,24.20
2018-12-11T01:18:27.471Z,23.15
2018-12-11T01:19:02.411Z,20.92
2018-12-11T01:19:37.400Z,24.67
2018-12-11T01:20:12.512Z,23.67
2018-12-11T01:20:47.473Z,24.30
2018-12-11T01:21:22.431Z,26.33
2018-12-11T01:21:57.371Z,25.55
2018-12-11T01:22:32.411Z,25.40
2018-12-11T01:23:07.411Z,25.17
2018-12-11T01:23:42.431Z,25.97
2018-12-11T01:24:17.572Z,25.75
2018-12-11T01:24:52.851Z,27.10
2018-12-11T01:25:27.652Z,25.72
2018-12-11T01:26:02.498Z,26.33
2018-12-11T01:26:37.371Z,25.27
2018-12-11T01:27:12.330Z,24.67
2018-12-11T01:27:47.160Z,24.15
2018-12-11T01:28:22.232Z,27.13
2018-12-11T01:28:57.251Z,28.07
2018-12-11T01:29:32.093Z,28.02
2018-12-11T01:30:07.193Z,26.93
2018-12-11T01:30:41.971Z,29.87
2018-12-11T01:31:16.872Z,25.95
2018-12-11T01:31:51.932Z,28.60
2018-12-11T01:32:26.951Z,29.10
2018-12-11T01:33:01.971Z,28.23
2018-12-11T01:33:36.872Z,27.37
2018-12-11T01:34:12.011Z,27.62
2018-12-11T01:34:46.951Z,28.20
2018-12-11T01:35:21.811Z,27.15
2018-12-11T01:35:56.791Z,27.50
2018-12-11T01:36:31.810Z,27.80
2018-12-11T01:37:06.810Z,27.95
2018-12-11T01:37:41.870Z,28.57
2018-12-11T01:38:16.771Z,24.75
2018-12-11T01:38:51.751Z,29.30
2018-12-11T01:39:26.691Z,28.55
2018-12-11T01:40:01.743Z,29.02
2018-12-11T01:40:36.872Z,27.22
2018-12-11T01:41:11.810Z,27.52
2018-12-11T01:41:46.731Z,28.50
2018-12-11T01:42:22.011Z,27.42
2018-12-11T01:42:56.891Z,26.97
2018-12-11T01:43:31.831Z,25.35
2018-12-11T01:44:07.033Z,27.10
2018-12-11T01:44:42.178Z,28.45
2018-12-11T01:45:17.391Z,28.67
2018-12-11T01:45:52.391Z,25.08
2018-12-11T01:46:27.339Z,28.35
2018-12-11T01:47:02.353Z,26.23
2018-12-11T01:47:37.351Z,27.62
2018-12-11T01:48:12.431Z,27.30
2018-12-11T01:48:47.311Z,29.27
2018-12-11T01:49:22.294Z,27.65
2018-12-11T01:49:57.172Z,27.75
2018-12-11T01:50:32.191Z,28.05
2018-12-11T01:51:07.232Z,29.57
2018-12-11T01:51:42.191Z,28.27
2018-12-11T01:52:17.172Z,20.08
2018-12-11T01:52:52.353Z,26.62
2018-12-11T01:53:27.371Z,27.10
2018-12-11T01:54:02.592Z,28.05
2018-12-11T01:54:37.532Z,28.87
2018-12-11T01:55:12.351Z,25.65
2018-12-11T01:55:47.371Z,22.07
2018-12-11T01:56:22.371Z,26.17
2018-12-11T01:56:57.399Z,26.77
2018-12-11T01:57:32.352Z,21.85
2018-12-11T01:58:07.312Z,26.85
2018-12-11T01:58:42.352Z,27.05
2018-12-11T01:59:17.431Z,29.67
2018-12-11T01:59:52.351Z,27.25
2018-12-11T02:00:27.420Z,27.10
2018-12-11T02:01:02.592Z,24.37
2018-12-11T02:01:37.692Z,26.48
2018-12-11T02:02:12.760Z,22.65
2018-12-11T02:02:47.619Z,18.20
2018-12-11T02:03:22.639Z,24.67
2018-12-11T02:03:57.960Z,24.80
2018-12-11T02:04:32.754Z,24.63
2018-12-11T02:05:07.739Z,21.80
2018-12-11T02:05:42.731Z,24.77
2018-12-11T02:06:17.872Z,24.52
2018-12-11T02:06:52.900Z,25.68
2018-12-11T02:07:27.779Z,26.90
2018-12-11T02:08:02.891Z,23.92
2018-12-11T02:08:37.860Z,23.02
2018-12-11T02:09:12.940Z,24.95
2018-12-11T02:09:48.504Z,25.88
2018-12-11T02:10:23.531Z,22.55
2018-12-11T02:10:58.554Z,24.65
2018-12-11T02:11:33.539Z,24.07
2018-12-11T02:12:08.612Z,24.72
2018-12-11T02:12:43.473Z,24.27
2018-12-11T02:13:18.732Z,25.80
2018-12-11T02:13:53.760Z,25.88
2018-12-11T02:14:28.840Z,24.85
2018-12-11T02:15:03.972Z,23.38
2018-12-11T02:15:39.242Z,23.45
2018-12-11T02:16:14.151Z,18.55
2018-12-11T02:16:49.192Z,19.52
2018-12-11T02:17:24.112Z,18.15
2018-12-11T02:17:59.112Z,20.52
2018-12-11T02:18:33.991Z,22.05
2018-12-11T02:19:09.020Z,22.48
2018-12-11T02:19:44.101Z,21.23
2018-12-11T02:20:19.292Z,16.82
2018-12-11T02:20:54.232Z,19.42
2018-12-11T02:21:29.192Z,19.62
2018-12-11T02:22:04.052Z,20.95
2018-12-11T02:22:39.020Z,19.92
2018-12-11T02:23:14.072Z,20.43
2018-12-11T02:23:48.981Z,19.15
2018-12-11T02:24:23.892Z,21.25
2018-12-11T02:24:58.912Z,14.63
2018-12-11T02:25:33.832Z,16.90
2018-12-11T02:26:08.873Z,17.85
2018-12-11T02:26:44.007Z,17.20
2018-12-11T02:27:19.099Z,14.83
2018-12-11T02:27:54.012Z,15.85
2018-12-11T02:28:29.072Z,16.50
2018-12-11T02:29:03.852Z,13.65
2018-12-11T02:29:38.972Z,16.15
2018-12-11T02:30:14.234Z,13.98
2018-12-11T02:30:48.973Z,15.23
2018-12-11T02:31:23.935Z,15.38
2018-12-11T02:31:58.893Z,17.42
2018-12-11T02:32:33.812Z,15.30
2018-12-11T02:33:08.672Z,18.05
2018-12-11T02:33:43.632Z,17.90
2018-12-11T02:34:18.681Z,17.25
2018-12-11T02:34:53.536Z,18.15
2018-12-11T02:35:28.813Z,18.02
2018-12-11T02:36:03.732Z,16.95
2018-12-11T02:36:38.652Z,18.42
2018-12-11T02:37:13.533Z,16.52
2018-12-11T02:37:48.515Z,17.27
2018-12-11T02:38:23.552Z,16.85
2018-12-11T02:38:58.456Z,16.32
2018-12-11T02:39:33.657Z,18.27
2018-12-11T02:40:08.532Z,18.37
2018-12-11T02:40:43.652Z,19.05
2018-12-11T02:41:18.797Z,16.87
2018-12-11T02:41:53.816Z,15.53
2018-12-11T02:42:28.753Z,17.35
2018-12-11T02:43:03.733Z,15.98
2018-12-11T02:43:38.913Z,16.10
2018-12-11T02:44:13.794Z,16.32
2018-12-11T02:44:48.772Z,16.52
2018-12-11T02:45:23.673Z,19.02
2018-12-11T02:45:58.834Z,17.80
2018-12-11T02:46:33.773Z,17.80
2018-12-11T02:47:15.174Z,18.75
2018-12-11T02:47:50.093Z,17.60
2018-12-11T02:48:25.136Z,18.25
2018-12-11T02:49:00.094Z,19.10
2018-12-11T02:49:35.313Z,19.23
2018-12-11T02:50:10.753Z,20.70
2018-12-11T02:50:45.713Z,19.50
2018-12-11T02:51:20.693Z,21.12
2018-12-11T02:51:55.732Z,19.60
2018-12-11T02:52:30.796Z,23.47
2018-12-11T02:53:05.735Z,22.07
2018-12-11T02:53:40.874Z,20.37
2018-12-11T02:54:15.933Z,20.17
2018-12-11T02:54:50.955Z,20.35
2018-12-11T02:55:26.033Z,18.82
2018-12-11T02:56:01.061Z,20.60
2018-12-11T02:56:35.927Z,21.93
2018-12-11T02:57:10.932Z,22.70
2018-12-11T02:57:45.813Z,20.92
2018-12-11T02:58:20.894Z,22.10
2018-12-11T02:58:55.921Z,20.72
2018-12-11T02:59:30.993Z,19.70
2018-12-11T03:00:10.074Z,21.27
2018-12-11T03:00:44.993Z,19.80
2018-12-11T03:01:19.856Z,21.33
2018-12-11T03:01:55.053Z,21.57
2018-12-11T03:02:30.013Z,20.62
2018-12-11T03:03:05.214Z,21.10
2018-12-11T03:03:40.233Z,18.70
2018-12-11T03:04:15.253Z,18.77
2018-12-11T03:04:50.412Z,20.60
2018-12-11T03:05:25.437Z,20.25
2018-12-11T03:06:00.398Z,19.42
2018-12-11T03:06:35.694Z,19.87
2018-12-11T03:07:10.733Z,19.45
2018-12-11T03:07:45.713Z,20.27
2018-12-11T03:08:20.733Z,18.70
2018-12-11T03:08:55.657Z,18.45
2018-12-11T03:09:30.553Z,18.92
2018-12-11T03:10:06.573Z,19.02
2018-12-11T03:10:41.513Z,18.07
2018-12-11T03:11:16.402Z,18.60
2018-12-11T03:11:51.474Z,17.73
2018-12-11T03:12:26.575Z,17.27
2018-12-11T03:13:01.314Z,16.57
2018-12-11T03:13:36.292Z,18.87
2018-12-11T03:14:11.334Z,17.17
2018-12-11T03:14:46.257Z,15.72
2018-12-11T03:15:21.234Z,16.48
2018-12-11T03:15:56.373Z,15.50
2018-12-11T03:16:31.233Z,17.73
2018-12-11T03:17:06.134Z,17.52
2018-12-11T03:17:41.234Z,17.12
2018-12-11T03:18:16.263Z,16.12
2018-12-11T03:18:51.354Z,17.60
2018-12-11T03:19:26.294Z,17.37
2018-12-11T03:20:01.450Z,18.05
2018-12-11T03:20:36.373Z,16.90
2018-12-11T03:21:11.213Z,16.85
2018-12-11T03:21:46.254Z,17.60
2018-12-11T03:22:21.095Z,18.37
2018-12-11T03:22:56.092Z,18.17
2018-12-11T03:23:31.074Z,18.07
2018-12-11T03:24:05.978Z,15.98
2018-12-11T03:24:40.855Z,15.15
2018-12-11T03:25:15.776Z,14.18
2018-12-11T03:25:50.813Z,12.45
2018-12-11T03:26:25.755Z,17.42
2018-12-11T03:27:00.854Z,16.75
2018-12-11T03:27:36.013Z,18.45
2018-12-11T03:28:11.013Z,16.42
2018-12-11T03:28:46.434Z,16.70
2018-12-11T03:29:21.383Z,16.62
2018-12-11T03:29:56.453Z,16.65
2018-12-11T03:30:31.414Z,14.00
2018-12-11T03:31:06.595Z,15.05
2018-12-11T03:31:41.639Z,13.32
2018-12-11T03:32:16.535Z,13.32
2018-12-11T03:32:51.605Z,14.80
2018-12-11T03:33:26.600Z,15.85
2018-12-11T03:34:01.534Z,15.58
2018-12-11T03:34:36.433Z,13.78
2018-12-11T03:35:11.393Z,14.00
2018-12-11T03:35:46.376Z,14.50
2018-12-11T03:36:21.395Z,12.65
2018-12-11T03:36:56.441Z,14.58
2018-12-11T03:37:31.274Z,16.00
2018-12-11T03:38:06.233Z,17.62
2018-12-11T03:38:41.197Z,14.47
2018-12-11T03:39:16.197Z,15.78
2018-12-11T03:39:51.201Z,16.12
2018-12-11T03:40:26.114Z,15.63
2018-12-11T03:41:01.373Z,9.70
2018-12-11T03:41:36.434Z,14.30
2018-12-11T03:42:11.494Z,14.53
2018-12-11T03:42:46.554Z,14.10
2018-12-11T03:43:21.476Z,11.90
2018-12-11T03:43:56.753Z,14.25
2018-12-11T03:44:31.874Z,12.53
2018-12-11T03:45:07.093Z,13.78
2018-12-11T03:45:42.173Z,14.43
2018-12-11T03:46:17.113Z,15.83
2018-12-11T03:46:53.056Z,10.20
2018-12-11T03:47:28.074Z,13.08
2018-12-11T03:48:02.993Z,10.18
2018-12-11T03:48:37.954Z,9.03
2018-12-11T03:49:12.994Z,14.35
2018-12-11T03:49:47.933Z,12.85
2018-12-11T03:50:22.893Z,14.23
2018-12-11T03:50:57.874Z,15.68
2018-12-11T03:51:32.892Z,14.55
2018-12-11T03:52:07.817Z,15.60
2018-12-11T03:52:42.893Z,16.45
2018-12-11T03:53:17.713Z,15.88
2018-12-11T03:53:52.713Z,16.85
2018-12-11T03:54:27.834Z,17.02
2018-12-11T03:55:02.983Z,12.45
2018-12-11T03:55:37.934Z,16.93
2018-12-11T03:56:12.868Z,13.85
2018-12-11T03:56:47.882Z,12.53
2018-12-11T03:57:22.794Z,16.32
2018-12-11T03:57:57.633Z,13.00
2018-12-11T03:58:32.641Z,14.50
2018-12-11T03:59:07.613Z,14.10
2018-12-11T03:59:42.674Z,18.80
2018-12-11T04:00:17.714Z,17.95
2018-12-11T04:00:52.693Z,16.45
2018-12-11T04:01:27.714Z,19.40
2018-12-11T04:02:02.721Z,17.95
2018-12-11T04:02:37.732Z,15.98
2018-12-11T04:03:12.713Z,13.65
2018-12-11T04:03:47.515Z,15.00
2018-12-11T04:04:22.392Z,11.73
2018-12-11T04:04:57.417Z,18.42
2018-12-11T04:05:32.333Z,19.48
2018-12-11T04:06:07.383Z,20.37
2018-12-11T04:06:42.513Z,21.73
2018-12-11T04:07:17.353Z,19.62
2018-12-11T04:07:52.313Z,21.12
2018-12-11T04:08:27.473Z,22.75
2018-12-11T04:09:02.493Z,20.92
2018-12-11T04:09:37.317Z,17.48
2018-12-11T04:10:12.493Z,21.10
2018-12-11T04:10:47.376Z,20.05
2018-12-11T04:11:22.552Z,18.55
2018-12-11T04:11:57.585Z,19.87
2018-12-11T04:12:32.853Z,19.15
2018-12-11T04:13:07.693Z,19.73
2018-12-11T04:13:42.681Z,17.85
2018-12-11T04:14:17.997Z,18.57
2018-12-11T04:14:53.054Z,18.40
2018-12-11T04:15:28.333Z,18.52
2018-12-11T04:16:03.313Z,18.02
2018-12-11T04:16:38.293Z,19.42
2018-12-11T04:17:13.373Z,19.02
2018-12-11T04:17:48.273Z,17.25
2018-12-11T04:18:23.135Z,14.50
2018-12-11T04:18:57.894Z,16.15
2018-12-11T04:19:32.877Z,19.80
2018-12-11T04:20:08.573Z,16.25
2018-12-11T04:20:43.582Z,16.15
2018-12-11T04:21:18.554Z,18.17
2018-12-11T04:21:53.533Z,11.40
2018-12-11T04:22:28.473Z,16.67
2018-12-11T04:23:03.394Z,14.98
2018-12-11T04:23:38.334Z,15.68
2018-12-11T04:24:13.326Z,17.95
2018-12-11T04:24:47.938Z,15.20
2018-12-11T04:25:22.440Z,12.60
2018-12-11T04:25:57.431Z,16.93
2018-12-11T04:26:32.491Z,18.37
2018-12-11T04:27:07.435Z,20.23
2018-12-11T04:27:42.530Z,19.77
2018-12-11T04:28:17.691Z,14.05
2018-12-11T04:28:52.751Z,15.68
2018-12-11T04:29:28.111Z,14.75
2018-12-11T04:30:03.172Z,17.23
2018-12-11T04:30:38.052Z,15.43
2018-12-11T04:31:13.040Z,11.60
2018-12-11T04:31:48.179Z,16.95
2018-12-11T04:32:23.131Z,18.35
2018-12-11T04:32:58.011Z,17.45
2018-12-11T04:33:33.331Z,18.57
2018-12-11T04:34:08.292Z,16.70
2018-12-11T04:34:43.211Z,17.30
2018-12-11T04:35:18.171Z,14.75
2018-12-11T04:35:53.039Z,14.63
2018-12-11T04:36:28.034Z,17.95
2018-12-11T04:37:03.211Z,17.48
2018-12-11T04:37:38.320Z,17.80
2018-12-11T04:38:13.291Z,20.72
2018-12-11T04:38:48.460Z,19.48
2018-12-11T04:39:23.651Z,19.77
2018-12-11T04:39:58.791Z,19.98
2018-12-11T04:40:33.772Z,19.35
2018-12-11T04:41:08.851Z,21.60
2018-12-11T04:41:43.996Z,21.15
2018-12-11T04:42:18.972Z,20.62
2018-12-11T04:42:53.812Z,20.32
2018-12-11T04:43:28.831Z,20.15
2018-12-11T04:44:03.872Z,20.75
2018-12-11T04:44:39.091Z,20.82
2018-12-11T04:45:14.031Z,18.60
2018-12-11T04:45:48.995Z,19.92
2018-12-11T04:46:24.031Z,20.97
2018-12-11T04:46:59.212Z,21.33
2018-12-11T04:47:34.414Z,19.23
2018-12-11T04:48:09.271Z,19.20
2018-12-11T04:48:44.291Z,20.92
2018-12-11T04:49:19.391Z,22.48
2018-12-11T04:49:54.270Z,23.83
2018-12-11T04:50:29.271Z,19.55
2018-12-11T04:51:04.179Z,21.42
2018-12-11T04:51:39.311Z,20.55
2018-12-11T04:52:14.370Z,20.32
2018-12-11T04:52:49.233Z,23.12
2018-12-11T04:53:24.231Z,24.80
2018-12-11T04:53:59.212Z,22.73
2018-12-11T04:54:34.131Z,22.55
2018-12-11T04:55:09.292Z,24.43
2018-12-11T04:55:44.171Z,22.65
2018-12-11T04:56:19.734Z,23.05
2018-12-11T04:56:54.969Z,22.55
2018-12-11T04:57:30.260Z,21.48
2018-12-11T04:58:05.393Z,19.37
2018-12-11T04:58:40.473Z,25.05
2018-12-11T04:59:15.413Z,24.32
2018-12-11T04:59:50.413Z,22.55
2018-12-11T05:00:25.552Z,22.80
2018-12-11T05:01:00.693Z,24.72
2018-12-11T05:01:35.613Z,23.92
2018-12-11T05:02:10.693Z,25.45
2018-12-11T05:02:45.793Z,23.85
2018-12-11T05:03:20.698Z,23.83
2018-12-11T05:03:55.853Z,23.25
2018-12-11T05:04:30.737Z,21.07
2018-12-11T05:05:06.593Z,23.30
2018-12-11T05:05:41.573Z,21.75
2018-12-11T05:06:16.573Z,24.87
2018-12-11T05:06:51.592Z,25.35
2018-12-11T05:07:26.652Z,24.50
2018-12-11T05:08:03.561Z,25.65
2018-12-11T05:08:38.493Z,20.48
2018-12-11T05:09:13.632Z,24.30
2018-12-11T05:09:48.753Z,24.20
2018-12-11T05:10:23.673Z,27.37
2018-12-11T05:10:58.693Z,25.20
2018-12-11T05:11:33.634Z,27.85
2018-12-11T05:12:08.655Z,26.35
2018-12-11T05:12:43.593Z,30.40
2018-12-11T05:13:18.632Z,28.02
2018-12-11T05:13:53.601Z,25.95
2018-12-11T05:14:28.634Z,24.12
2018-12-11T05:15:03.893Z,24.15
2018-12-11T05:15:38.932Z,31.75
2018-12-11T05:16:13.853Z,32.13
2018-12-11T05:16:48.793Z,28.85
2018-12-11T05:17:23.692Z,27.30
2018-12-11T05:17:58.733Z,23.05
2018-12-11T05:18:33.833Z,26.77
2018-12-11T05:19:08.756Z,22.13
2018-12-11T05:19:43.673Z,25.68
2018-12-11T05:20:18.761Z,26.85
2018-12-11T05:20:53.697Z,23.62
2018-12-11T05:21:28.794Z,21.27
2018-12-11T05:22:03.973Z,24.70
2018-12-11T05:22:39.033Z,26.17
2018-12-11T05:23:14.053Z,28.77
2018-12-11T05:23:49.194Z,27.80
2018-12-11T05:24:24.167Z,23.52
2018-12-11T05:24:59.415Z,28.50
2018-12-11T05:25:34.396Z,26.73
2018-12-11T05:26:09.306Z,24.57
2018-12-11T05:26:44.376Z,24.52
2018-12-11T05:27:19.324Z,26.90
2018-12-11T05:27:54.205Z,28.30
2018-12-11T05:28:29.417Z,30.15
2018-12-11T05:29:04.438Z,25.30
2018-12-11T05:29:39.376Z,26.62
2018-12-11T05:30:14.384Z,30.70
2018-12-11T05:30:49.416Z,28.15
2018-12-11T05:31:24.376Z,22.82
2018-12-11T05:31:59.976Z,27.05
2018-12-11T05:32:35.057Z,27.93
2018-12-11T05:33:09.996Z,27.65
2018-12-11T05:33:44.916Z,28.17
2018-12-11T05:34:19.936Z,30.92
2018-12-11T05:34:55.076Z,31.25
2018-12-11T05:35:30.017Z,31.07
2018-12-11T05:36:05.176Z,22.55
2018-12-11T05:36:40.419Z,29.57
2018-12-11T05:37:15.278Z,26.42
2018-12-11T05:37:50.357Z,29.25
2018-12-11T05:38:25.777Z,29.30
2018-12-11T05:39:00.977Z,32.45
2018-12-11T05:39:36.037Z,30.62
2018-12-11T05:40:11.077Z,27.93
2018-12-11T05:40:46.016Z,32.17
2018-12-11T05:41:20.917Z,30.77
2018-12-11T05:41:55.736Z,31.05
2018-12-11T05:42:30.656Z,27.75
2018-12-11T05:43:05.676Z,29.10
2018-12-11T05:43:40.616Z,26.60
2018-12-11T05:44:15.656Z,29.00
2018-12-11T05:44:50.636Z,29.85
2018-12-11T05:45:25.524Z,25.32
2018-12-11T05:46:00.617Z,25.48
2018-12-11T05:46:35.697Z,29.35
2018-12-11T05:47:10.777Z,33.85
2018-12-11T05:47:45.776Z,28.32
2018-12-11T05:48:20.564Z,22.17
2018-12-11T05:48:55.536Z,19.55
2018-12-11T05:49:30.543Z,26.45
2018-12-11T05:50:06.118Z,29.23
2018-12-11T05:50:41.239Z,24.82
2018-12-11T05:51:16.237Z,24.32
2018-12-11T05:51:51.343Z,25.75
2018-12-11T05:52:26.316Z,24.87
2018-12-11T05:53:01.376Z,27.13
2018-12-11T05:53:36.256Z,25.32
2018-12-11T05:54:11.177Z,25.30
2018-12-11T05:54:46.137Z,24.05
2018-12-11T05:55:21.215Z,24.10
2018-12-11T05:55:56.156Z,25.88
2018-12-11T05:56:31.225Z,25.23
2018-12-11T05:57:06.293Z,26.85
2018-12-11T05:57:41.086Z,26.40
2018-12-11T05:58:16.117Z,24.45
2018-12-11T05:58:51.138Z,25.95
2018-12-11T05:59:25.969Z,22.62
2018-12-11T06:00:01.060Z,25.68
2018-12-11T06:00:36.141Z,25.20
2018-12-11T06:01:11.245Z,26.25
2018-12-11T06:01:46.367Z,27.00
2018-12-11T06:02:21.263Z,23.50
2018-12-11T06:02:56.868Z,23.62
2018-12-11T06:03:32.020Z,24.60
2018-12-11T06:04:06.954Z,25.15
2018-12-11T06:04:41.975Z,23.02
2018-12-11T06:05:16.835Z,21.42
2018-12-11T06:05:51.895Z,26.02
2018-12-11T06:06:26.955Z,22.25
2018-12-11T06:07:01.674Z,21.02
2018-12-11T06:07:36.635Z,19.12
2018-12-11T06:08:11.575Z,21.77
2018-12-11T06:08:46.415Z,24.02
2018-12-11T06:09:21.315Z,23.95
2018-12-11T06:09:55.935Z,25.17
2018-12-11T06:10:30.495Z,23.70
2018-12-11T06:11:05.174Z,23.73
2018-12-11T06:11:39.796Z,23.62
2018-12-11T06:12:14.735Z,24.50
2018-12-11T06:12:49.754Z,24.07
2018-12-11T06:13:24.855Z,25.32
2018-12-11T06:13:59.794Z,26.33
2018-12-11T06:14:34.835Z,22.13
2018-12-11T06:15:09.774Z,22.73
2018-12-11T06:15:44.674Z,25.23
2018-12-11T06:16:19.763Z,26.40
2018-12-11T06:16:54.634Z,25.17
2018-12-11T06:17:29.436Z,24.63
2018-12-11T06:18:04.414Z,27.17
2018-12-11T06:18:39.402Z,25.77
2018-12-11T06:19:14.434Z,25.68
2018-12-11T06:19:49.379Z,24.65
2018-12-11T06:20:24.414Z,26.52
2018-12-11T06:20:59.570Z,26.75
2018-12-11T06:21:34.554Z,25.80
2018-12-11T06:22:09.602Z,25.50
2018-12-11T06:22:44.535Z,27.22
2018-12-11T06:23:19.464Z,27.05
2018-12-11T06:23:54.434Z,28.80
2018-12-11T06:24:29.354Z,28.00
2018-12-11T06:25:04.766Z,28.95
2018-12-11T06:25:40.054Z,27.40
2018-12-11T06:26:15.014Z,27.40
2018-12-11T06:26:50.039Z,24.63
2018-12-11T06:27:25.142Z,23.95
2018-12-11T06:28:00.094Z,25.30
2018-12-11T06:28:36.265Z,19.00
2018-12-11T06:29:11.576Z,21.42
2018-12-11T06:29:46.633Z,23.20
2018-12-11T06:30:21.515Z,23.22
2018-12-11T06:30:56.594Z,23.05
2018-12-11T06:31:31.658Z,21.85
2018-12-11T06:32:06.794Z,22.80
2018-12-11T06:32:41.814Z,17.75
2018-12-11T06:33:16.694Z,21.50
2018-12-11T06:33:51.634Z,23.30
2018-12-11T06:34:26.594Z,21.45
2018-12-11T06:35:01.623Z,26.00
2018-12-11T06:35:36.474Z,21.45
2018-12-11T06:36:11.535Z,24.57
2018-12-11T06:36:46.502Z,23.27
2018-12-11T06:37:21.596Z,24.70
2018-12-11T06:37:56.674Z,25.55
2018-12-11T06:38:31.623Z,27.42
2018-12-11T06:39:07.634Z,26.73
2018-12-11T06:39:42.594Z,24.15
2018-12-11T06:40:17.417Z,26.40
2018-12-11T06:40:52.416Z,27.00
2018-12-11T06:41:27.434Z,26.30
2018-12-11T06:42:02.275Z,28.10
2018-12-11T06:42:37.342Z,26.05
2018-12-11T06:43:12.395Z,27.30
2018-12-11T06:43:47.454Z,25.77
2018-12-11T06:44:22.354Z,24.90
2018-12-11T06:44:57.234Z,28.12
2018-12-11T06:45:32.175Z,27.10
2018-12-11T06:46:07.134Z,26.27
2018-12-11T06:46:42.094Z,25.30
2018-12-11T06:47:17.114Z,25.95
2018-12-11T06:47:52.174Z,28.00
2018-12-11T06:48:27.154Z,27.20
2018-12-11T06:49:02.181Z,21.52
2018-12-11T06:49:37.353Z,19.35
2018-12-11T06:50:12.362Z,27.22
2018-12-11T06:50:47.415Z,29.87
2018-12-11T06:51:22.375Z,30.85
2018-12-11T06:51:57.615Z,27.90
2018-12-11T06:52:32.633Z,29.52
2018-12-11T06:53:07.738Z,24.72
2018-12-11T06:53:42.735Z,25.65
2018-12-11T06:54:17.793Z,31.25
2018-12-11T06:54:52.975Z,28.52
2018-12-11T06:55:28.234Z,28.05
2018-12-11T06:56:03.314Z,28.60
2018-12-11T06:56:38.194Z,25.52
2018-12-11T06:57:13.355Z,27.10
2018-12-11T06:57:48.377Z,29.42
2018-12-11T06:58:23.413Z,27.67
2018-12-11T06:58:58.614Z,27.73
2018-12-11T06:59:33.513Z,30.68
2018-12-11T07:00:08.913Z,29.77
2018-12-11T07:00:43.734Z,33.05
2018-12-11T07:01:18.796Z,34.67
2018-12-11T07:01:54.134Z,37.10
2018-12-11T07:02:29.153Z,33.75
2018-12-11T07:03:04.515Z,32.95
2018-12-11T07:03:39.637Z,26.60
2018-12-11T07:04:14.613Z,30.90
2018-12-11T07:04:49.533Z,30.70
2018-12-11T07:05:24.414Z,32.93
2018-12-11T07:05:59.353Z,29.82
2018-12-11T07:06:34.213Z,29.82
2018-12-11T07:07:09.181Z,30.90
2018-12-11T07:07:44.153Z,32.45
2018-12-11T07:08:19.174Z,32.38
2018-12-11T07:08:54.555Z,36.50
2018-12-11T07:09:29.733Z,36.70
2018-12-11T07:10:05.037Z,35.75
2018-12-11T07:10:39.976Z,34.03
2018-12-11T07:11:14.914Z,35.60
2018-12-11T07:11:49.976Z,34.50
2018-12-11T07:12:24.835Z,33.60
2018-12-11T07:12:59.853Z,32.45
2018-12-11T07:13:34.713Z,32.03
2018-12-11T07:14:09.934Z,32.00
2018-12-11T07:14:44.854Z,28.90
2018-12-11T07:15:19.956Z,30.72
2018-12-11T07:15:55.214Z,25.30
2018-12-11T07:16:30.393Z,31.02
2018-12-11T07:17:05.495Z,31.60
2018-12-11T07:17:40.374Z,31.85
2018-12-11T07:18:18.337Z,34.38
2018-12-11T07:18:53.696Z,30.85
2018-12-11T07:19:28.777Z,26.45
2018-12-11T07:20:03.998Z,28.60
2018-12-11T07:20:38.860Z,29.75
2018-12-11T07:21:14.017Z,31.05
2018-12-11T07:21:49.177Z,29.52
2018-12-11T07:22:24.118Z,32.60
2018-12-11T07:22:59.157Z,31.70
2018-12-11T07:23:34.077Z,31.45
2018-12-11T07:24:08.977Z,32.05
2018-12-11T07:24:44.057Z,30.55
2018-12-11T07:25:18.998Z,29.30
2018-12-11T07:25:53.998Z,30.20
2018-12-11T07:26:29.038Z,31.73
2018-12-11T07:27:04.036Z,29.75
2018-12-11T07:27:39.097Z,29.42
2018-12-11T07:28:13.977Z,32.90
2018-12-11T07:28:48.926Z,31.57
2018-12-11T07:29:23.886Z,28.92
2018-12-11T07:29:58.862Z,30.52
2018-12-11T07:30:33.957Z,28.62
2018-12-11T07:31:08.797Z,30.15